sensor_id;sensor_type;location;lat;lon;timestamp;pressure;altitude;pressure_sealevel;temperature;humidity
67373;BME280;54257;54.496;18.412;2022-08-21T00:00:14;99461.34;;;21.23;80.73
67373;BME280;54257;54.496;18.412;2022-08-21T00:03:05;99460.20;;;21.27;80.72
67373;BME280;54257;54.496;18.412;2022-08-21T00:05:37;99453.48;;;21.30;80.75
67373;BME280;54257;54.496;18.412;2022-08-21T00:08:05;99451.44;;;21.34;80.82
67373;BME280;54257;54.496;18.412;2022-08-21T00:10:32;99452.79;;;21.36;80.75
67373;BME280;54257;54.496;18.412;2022-08-21T00:13:04;99451.19;;;21.36;80.61
67373;BME280;54257;54.496;18.412;2022-08-21T00:15:34;99449.21;;;21.38;80.63
67373;BME280;54257;54.496;18.412;2022-08-21T00:18:02;99449.36;;;21.39;80.73
67373;BME280;54257;54.496;18.412;2022-08-21T00:20:32;99445.10;;;21.36;80.44
67373;BME280;54257;54.496;18.412;2022-08-21T00:22:59;99442.33;;;21.36;80.38
67373;BME280;54257;54.496;18.412;2022-08-21T00:25:27;99443.81;;;21.34;80.28
67373;BME280;54257;54.496;18.412;2022-08-21T00:27:55;99446.52;;;21.31;80.48
67373;BME280;54257;54.496;18.412;2022-08-21T00:30:24;99445.77;;;21.28;80.50
67373;BME280;54257;54.496;18.412;2022-08-21T00:32:53;99444.23;;;21.26;80.56
67373;BME280;54257;54.496;18.412;2022-08-21T00:35:24;99446.21;;;21.23;80.78
67373;BME280;54257;54.496;18.412;2022-08-21T00:37:52;99448.76;;;21.25;80.75
67373;BME280;54257;54.496;18.412;2022-08-21T00:40:27;99451.52;;;21.26;80.83
67373;BME280;54257;54.496;18.412;2022-08-21T00:42:54;99461.67;;;21.23;80.79
67373;BME280;54257;54.496;18.412;2022-08-21T00:45:22;99467.15;;;21.16;81.20
67373;BME280;54257;54.496;18.412;2022-08-21T00:47:51;99466.86;;;21.04;81.46
67373;BME280;54257;54.496;18.412;2022-08-21T00:50:19;99463.65;;;20.92;81.97
67373;BME280;54257;54.496;18.412;2022-08-21T00:52:49;99467.40;;;20.78;83.01
67373;BME280;54257;54.496;18.412;2022-08-21T00:55:18;99472.20;;;20.69;82.73
67373;BME280;54257;54.496;18.412;2022-08-21T00:57:51;99463.77;;;20.67;82.31
67373;BME280;54257;54.496;18.412;2022-08-21T01:00:22;99446.38;;;20.68;82.56
67373;BME280;54257;54.496;18.412;2022-08-21T01:02:50;99441.36;;;20.67;82.27
67373;BME280;54257;54.496;18.412;2022-08-21T01:05:17;99442.88;;;20.69;82.27
67373;BME280;54257;54.496;18.412;2022-08-21T01:07:44;99447.65;;;20.72;82.46
67373;BME280;54257;54.496;18.412;2022-08-21T01:10:13;99454.23;;;20.72;82.30
67373;BME280;54257;54.496;18.412;2022-08-21T01:12:41;99452.34;;;20.72;82.19
67373;BME280;54257;54.496;18.412;2022-08-21T01:15:09;99451.08;;;20.67;82.18
67373;BME280;54257;54.496;18.412;2022-08-21T01:17:37;99450.40;;;20.67;82.30
67373;BME280;54257;54.496;18.412;2022-08-21T01:20:09;99447.34;;;20.70;82.16
67373;BME280;54257;54.496;18.412;2022-08-21T01:22:37;99445.94;;;20.76;82.27
67373;BME280;54257;54.496;18.412;2022-08-21T01:25:07;99445.35;;;20.79;82.17
67373;BME280;54257;54.496;18.412;2022-08-21T01:27:36;99449.02;;;20.83;82.14
67373;BME280;54257;54.496;18.412;2022-08-21T01:30:14;99446.05;;;20.88;82.16
67373;BME280;54257;54.496;18.412;2022-08-21T01:32:42;99447.75;;;20.95;82.20
67373;BME280;54257;54.496;18.412;2022-08-21T01:35:11;99445.70;;;20.98;81.83
67373;BME280;54257;54.496;18.412;2022-08-21T01:37:39;99444.48;;;21.04;81.67
67373;BME280;54257;54.496;18.412;2022-08-21T01:40:06;99436.64;;;21.09;81.70
67373;BME280;54257;54.496;18.412;2022-08-21T01:42:35;99437.66;;;21.15;81.57
67373;BME280;54257;54.496;18.412;2022-08-21T01:45:04;99436.98;;;21.19;81.49
67373;BME280;54257;54.496;18.412;2022-08-21T01:47:31;99434.52;;;21.25;81.32
67373;BME280;54257;54.496;18.412;2022-08-21T01:50:00;99433.02;;;21.29;80.96
67373;BME280;54257;54.496;18.412;2022-08-21T01:52:28;99433.48;;;21.31;80.84
67373;BME280;54257;54.496;18.412;2022-08-21T01:54:55;99430.11;;;21.33;80.70
67373;BME280;54257;54.496;18.412;2022-08-21T01:57:23;99430.07;;;21.34;80.84
67373;BME280;54257;54.496;18.412;2022-08-21T01:59:50;99429.85;;;21.35;80.66
67373;BME280;54257;54.496;18.412;2022-08-21T02:02:17;99430.20;;;21.35;80.70
67373;BME280;54257;54.496;18.412;2022-08-21T02:04:44;99428.48;;;21.35;80.80
67373;BME280;54257;54.496;18.412;2022-08-21T02:07:11;99426.16;;;21.36;80.85
67373;BME280;54257;54.496;18.412;2022-08-21T02:09:39;99427.69;;;21.37;80.74
67373;BME280;54257;54.496;18.412;2022-08-21T02:12:10;99429.64;;;21.36;80.49
67373;BME280;54257;54.496;18.412;2022-08-21T02:14:38;99430.20;;;21.36;80.43
67373;BME280;54257;54.496;18.412;2022-08-21T02:17:05;99432.85;;;21.34;80.41
67373;BME280;54257;54.496;18.412;2022-08-21T02:19:32;99428.21;;;21.32;80.52
67373;BME280;54257;54.496;18.412;2022-08-21T02:21:59;99433.38;;;21.34;80.71
67373;BME280;54257;54.496;18.412;2022-08-21T02:24:26;99430.61;;;21.33;80.74
67373;BME280;54257;54.496;18.412;2022-08-21T02:26:53;99430.95;;;21.33;80.50
67373;BME280;54257;54.496;18.412;2022-08-21T02:29:20;99426.30;;;21.32;80.70
67373;BME280;54257;54.496;18.412;2022-08-21T02:31:47;99426.07;;;21.30;80.64
67373;BME280;54257;54.496;18.412;2022-08-21T02:34:14;99423.03;;;21.26;80.75
67373;BME280;54257;54.496;18.412;2022-08-21T02:36:42;99421.64;;;21.25;80.78
67373;BME280;54257;54.496;18.412;2022-08-21T02:39:09;99417.30;;;21.25;80.89
67373;BME280;54257;54.496;18.412;2022-08-21T02:41:36;99410.68;;;21.21;80.75
67373;BME280;54257;54.496;18.412;2022-08-21T02:44:03;99409.24;;;21.18;80.94
67373;BME280;54257;54.496;18.412;2022-08-21T02:46:30;99404.48;;;21.15;81.07
67373;BME280;54257;54.496;18.412;2022-08-21T02:48:58;99402.58;;;21.14;81.19
67373;BME280;54257;54.496;18.412;2022-08-21T02:51:25;99396.75;;;21.13;81.31
67373;BME280;54257;54.496;18.412;2022-08-21T02:53:53;99399.20;;;21.12;81.50
67373;BME280;54257;54.496;18.412;2022-08-21T02:56:21;99397.61;;;21.08;81.46
67373;BME280;54257;54.496;18.412;2022-08-21T02:58:51;99397.13;;;21.02;81.61
67373;BME280;54257;54.496;18.412;2022-08-21T03:01:18;99394.21;;;21.01;81.75
67373;BME280;54257;54.496;18.412;2022-08-21T03:03:47;99400.15;;;20.99;81.78
67373;BME280;54257;54.496;18.412;2022-08-21T03:06:17;99401.54;;;20.99;82.03
67373;BME280;54257;54.496;18.412;2022-08-21T03:08:45;99406.52;;;21.01;82.03
67373;BME280;54257;54.496;18.412;2022-08-21T03:11:13;99404.44;;;21.01;82.00
67373;BME280;54257;54.496;18.412;2022-08-21T03:13:41;99409.00;;;21.00;82.16
67373;BME280;54257;54.496;18.412;2022-08-21T03:16:09;99411.95;;;21.00;82.33
67373;BME280;54257;54.496;18.412;2022-08-21T03:18:36;99413.30;;;21.02;82.14
67373;BME280;54257;54.496;18.412;2022-08-21T03:21:04;99413.02;;;21.05;82.41
67373;BME280;54257;54.496;18.412;2022-08-21T03:23:32;99414.31;;;21.07;82.37
67373;BME280;54257;54.496;18.412;2022-08-21T03:26:00;99412.13;;;21.05;82.23
67373;BME280;54257;54.496;18.412;2022-08-21T03:28:27;99412.98;;;21.06;81.98
67373;BME280;54257;54.496;18.412;2022-08-21T03:30:55;99413.79;;;21.07;82.44
67373;BME280;54257;54.496;18.412;2022-08-21T03:33:23;99415.23;;;21.10;82.26
67373;BME280;54257;54.496;18.412;2022-08-21T03:36:03;99415.88;;;21.12;82.26
67373;BME280;54257;54.496;18.412;2022-08-21T03:38:33;99417.63;;;21.12;81.99
67373;BME280;54257;54.496;18.412;2022-08-21T03:41:01;99418.30;;;21.12;82.03
67373;BME280;54257;54.496;18.412;2022-08-21T03:43:29;99415.52;;;21.12;82.10
67373;BME280;54257;54.496;18.412;2022-08-21T03:45:56;99416.52;;;21.13;82.08
67373;BME280;54257;54.496;18.412;2022-08-21T03:48:23;99418.98;;;21.13;81.96
67373;BME280;54257;54.496;18.412;2022-08-21T03:50:52;99424.17;;;21.13;82.15
67373;BME280;54257;54.496;18.412;2022-08-21T03:53:20;99422.50;;;21.12;82.00
67373;BME280;54257;54.496;18.412;2022-08-21T03:55:49;99420.02;;;21.08;81.88
67373;BME280;54257;54.496;18.412;2022-08-21T03:58:19;99421.20;;;21.04;82.08
67373;BME280;54257;54.496;18.412;2022-08-21T04:00:49;99421.56;;;21.04;82.03
67373;BME280;54257;54.496;18.412;2022-08-21T04:03:17;99421.37;;;21.04;82.13
67373;BME280;54257;54.496;18.412;2022-08-21T04:05:45;99421.58;;;21.04;82.36
67373;BME280;54257;54.496;18.412;2022-08-21T04:08:14;99419.17;;;21.03;82.30
67373;BME280;54257;54.496;18.412;2022-08-21T04:10:43;99419.41;;;21.00;82.58
67373;BME280;54257;54.496;18.412;2022-08-21T04:13:10;99420.61;;;20.95;82.35
67373;BME280;54257;54.496;18.412;2022-08-21T04:15:37;99426.08;;;20.94;82.48
67373;BME280;54257;54.496;18.412;2022-08-21T04:18:05;99424.52;;;20.93;82.56
67373;BME280;54257;54.496;18.412;2022-08-21T04:20:32;99418.35;;;20.96;82.68
67373;BME280;54257;54.496;18.412;2022-08-21T04:23:01;99417.10;;;20.97;82.65
67373;BME280;54257;54.496;18.412;2022-08-21T04:25:29;99423.13;;;20.98;82.68
67373;BME280;54257;54.496;18.412;2022-08-21T04:27:56;99426.32;;;21.01;82.81
67373;BME280;54257;54.496;18.412;2022-08-21T04:30:24;99433.83;;;21.00;82.70
67373;BME280;54257;54.496;18.412;2022-08-21T04:32:51;99433.72;;;20.98;82.85
67373;BME280;54257;54.496;18.412;2022-08-21T04:35:21;99434.87;;;20.96;82.77
67373;BME280;54257;54.496;18.412;2022-08-21T04:37:49;99440.47;;;20.94;83.10
67373;BME280;54257;54.496;18.412;2022-08-21T04:40:18;99435.89;;;20.90;83.08
67373;BME280;54257;54.496;18.412;2022-08-21T04:42:51;99438.48;;;20.91;83.04
67373;BME280;54257;54.496;18.412;2022-08-21T04:45:31;99434.96;;;20.92;83.33
67373;BME280;54257;54.496;18.412;2022-08-21T04:48:00;99434.45;;;20.92;83.39
67373;BME280;54257;54.496;18.412;2022-08-21T04:50:30;99433.88;;;20.94;83.34
67373;BME280;54257;54.496;18.412;2022-08-21T04:52:59;99430.19;;;20.95;83.49
67373;BME280;54257;54.496;18.412;2022-08-21T04:55:27;99425.61;;;20.97;83.50
67373;BME280;54257;54.496;18.412;2022-08-21T04:57:55;99424.69;;;20.98;83.38
67373;BME280;54257;54.496;18.412;2022-08-21T05:00:24;99431.98;;;20.98;83.43
67373;BME280;54257;54.496;18.412;2022-08-21T05:02:52;99440.27;;;20.99;83.71
67373;BME280;54257;54.496;18.412;2022-08-21T05:05:23;99437.83;;;21.00;83.49
67373;BME280;54257;54.496;18.412;2022-08-21T05:07:51;99437.74;;;21.03;83.59
67373;BME280;54257;54.496;18.412;2022-08-21T05:10:20;99442.61;;;21.03;83.19
67373;BME280;54257;54.496;18.412;2022-08-21T05:12:47;99445.25;;;21.06;83.68
67373;BME280;54257;54.496;18.412;2022-08-21T05:15:15;99446.63;;;21.07;83.68
67373;BME280;54257;54.496;18.412;2022-08-21T05:17:43;99448.26;;;21.05;83.40
67373;BME280;54257;54.496;18.412;2022-08-21T05:20:12;99450.00;;;21.05;83.39
67373;BME280;54257;54.496;18.412;2022-08-21T05:22:40;99448.74;;;21.06;83.26
67373;BME280;54257;54.496;18.412;2022-08-21T05:25:09;99450.54;;;21.09;83.34
67373;BME280;54257;54.496;18.412;2022-08-21T05:27:37;99451.68;;;21.12;83.27
67373;BME280;54257;54.496;18.412;2022-08-21T05:30:06;99453.55;;;21.13;82.95
67373;BME280;54257;54.496;18.412;2022-08-21T05:32:35;99458.20;;;21.14;83.09
67373;BME280;54257;54.496;18.412;2022-08-21T05:35:06;99456.39;;;21.16;82.95
67373;BME280;54257;54.496;18.412;2022-08-21T05:37:34;99457.05;;;21.17;83.09
67373;BME280;54257;54.496;18.412;2022-08-21T05:40:02;99454.91;;;21.13;82.79
67373;BME280;54257;54.496;18.412;2022-08-21T05:42:33;99455.98;;;21.13;82.83
67373;BME280;54257;54.496;18.412;2022-08-21T05:45:00;99458.02;;;21.09;82.77
67373;BME280;54257;54.496;18.412;2022-08-21T05:47:27;99462.27;;;21.07;82.91
67373;BME280;54257;54.496;18.412;2022-08-21T05:49:54;99464.96;;;21.09;83.15
67373;BME280;54257;54.496;18.412;2022-08-21T05:52:21;99468.02;;;21.11;82.99
67373;BME280;54257;54.496;18.412;2022-08-21T05:54:49;99470.45;;;21.16;83.21
67373;BME280;54257;54.496;18.412;2022-08-21T05:57:16;99468.17;;;21.17;83.11
67373;BME280;54257;54.496;18.412;2022-08-21T05:59:43;99474.47;;;21.15;83.18
67373;BME280;54257;54.496;18.412;2022-08-21T06:02:10;99479.33;;;21.15;82.82
67373;BME280;54257;54.496;18.412;2022-08-21T06:04:38;99482.61;;;21.12;82.80
67373;BME280;54257;54.496;18.412;2022-08-21T06:07:06;99482.10;;;21.11;82.94
67373;BME280;54257;54.496;18.412;2022-08-21T06:09:34;99480.31;;;21.07;82.84
67373;BME280;54257;54.496;18.412;2022-08-21T06:12:08;99485.38;;;21.02;82.69
67373;BME280;54257;54.496;18.412;2022-08-21T06:14:36;99486.41;;;20.96;82.63
67373;BME280;54257;54.496;18.412;2022-08-21T06:17:04;99483.81;;;20.96;82.84
67373;BME280;54257;54.496;18.412;2022-08-21T06:19:32;99481.86;;;20.97;82.99
67373;BME280;54257;54.496;18.412;2022-08-21T06:22:00;99484.30;;;20.97;82.85
67373;BME280;54257;54.496;18.412;2022-08-21T06:24:27;99480.69;;;20.96;82.87
67373;BME280;54257;54.496;18.412;2022-08-21T06:26:55;99480.34;;;20.96;82.94
67373;BME280;54257;54.496;18.412;2022-08-21T06:29:22;99477.19;;;20.97;82.58
67373;BME280;54257;54.496;18.412;2022-08-21T06:31:50;99472.05;;;20.99;82.88
67373;BME280;54257;54.496;18.412;2022-08-21T06:34:18;99467.96;;;21.03;82.75
67373;BME280;54257;54.496;18.412;2022-08-21T06:36:45;99464.63;;;21.04;82.55
67373;BME280;54257;54.496;18.412;2022-08-21T06:39:12;99462.00;;;21.05;82.68
67373;BME280;54257;54.496;18.412;2022-08-21T06:41:40;99462.00;;;21.04;82.57
67373;BME280;54257;54.496;18.412;2022-08-21T06:44:07;99465.27;;;21.06;82.69
67373;BME280;54257;54.496;18.412;2022-08-21T06:46:35;99465.09;;;21.05;82.61
67373;BME280;54257;54.496;18.412;2022-08-21T06:49:03;99469.20;;;21.03;82.50
67373;BME280;54257;54.496;18.412;2022-08-21T06:51:30;99471.46;;;21.02;82.55
67373;BME280;54257;54.496;18.412;2022-08-21T06:53:58;99474.39;;;21.03;82.52
67373;BME280;54257;54.496;18.412;2022-08-21T06:56:25;99468.06;;;21.05;82.45
67373;BME280;54257;54.496;18.412;2022-08-21T06:58:52;99467.85;;;21.06;82.58
67373;BME280;54257;54.496;18.412;2022-08-21T07:01:24;99468.96;;;21.09;82.69
67373;BME280;54257;54.496;18.412;2022-08-21T07:03:52;99473.69;;;21.13;82.56
67373;BME280;54257;54.496;18.412;2022-08-21T07:06:19;99472.51;;;21.17;82.72
67373;BME280;54257;54.496;18.412;2022-08-21T07:08:46;99480.36;;;21.21;82.34
67373;BME280;54257;54.496;18.412;2022-08-21T07:11:22;99478.02;;;21.23;82.46
67373;BME280;54257;54.496;18.412;2022-08-21T07:13:51;99486.08;;;21.27;82.25
67373;BME280;54257;54.496;18.412;2022-08-21T07:16:21;99485.55;;;21.27;82.01
67373;BME280;54257;54.496;18.412;2022-08-21T07:18:48;99485.09;;;21.24;82.05
67373;BME280;54257;54.496;18.412;2022-08-21T07:21:16;99482.03;;;21.29;82.20
67373;BME280;54257;54.496;18.412;2022-08-21T07:23:46;99478.61;;;21.32;82.07
67373;BME280;54257;54.496;18.412;2022-08-21T07:26:16;99479.77;;;21.34;81.61
67373;BME280;54257;54.496;18.412;2022-08-21T07:28:43;99482.90;;;21.34;81.54
67373;BME280;54257;54.496;18.412;2022-08-21T07:31:14;99489.07;;;21.31;81.35
67373;BME280;54257;54.496;18.412;2022-08-21T07:33:42;99494.58;;;21.32;81.41
67373;BME280;54257;54.496;18.412;2022-08-21T07:36:10;99492.27;;;21.34;81.34
67373;BME280;54257;54.496;18.412;2022-08-21T07:38:38;99494.55;;;21.38;81.64
67373;BME280;54257;54.496;18.412;2022-08-21T07:41:12;99495.83;;;21.37;81.01
67373;BME280;54257;54.496;18.412;2022-08-21T07:43:40;99493.11;;;21.35;80.95
67373;BME280;54257;54.496;18.412;2022-08-21T07:46:07;99497.52;;;21.33;80.81
67373;BME280;54257;54.496;18.412;2022-08-21T07:48:34;99496.65;;;21.33;80.86
67373;BME280;54257;54.496;18.412;2022-08-21T07:51:06;99497.67;;;21.34;80.81
67373;BME280;54257;54.496;18.412;2022-08-21T07:53:34;99496.39;;;21.36;80.85
67373;BME280;54257;54.496;18.412;2022-08-21T07:56:03;99499.36;;;21.35;80.88
67373;BME280;54257;54.496;18.412;2022-08-21T07:58:32;99497.13;;;21.34;80.32
67373;BME280;54257;54.496;18.412;2022-08-21T08:00:59;99498.82;;;21.31;80.34
67373;BME280;54257;54.496;18.412;2022-08-21T08:03:27;99504.44;;;21.29;80.50
67373;BME280;54257;54.496;18.412;2022-08-21T08:05:54;99504.34;;;21.26;80.56
67373;BME280;54257;54.496;18.412;2022-08-21T08:08:22;99505.24;;;21.25;80.59
67373;BME280;54257;54.496;18.412;2022-08-21T08:10:49;99500.48;;;21.22;80.40
67373;BME280;54257;54.496;18.412;2022-08-21T08:13:16;99499.56;;;21.19;80.64
67373;BME280;54257;54.496;18.412;2022-08-21T08:15:44;99501.32;;;21.18;80.65
67373;BME280;54257;54.496;18.412;2022-08-21T08:18:11;99502.00;;;21.18;80.81
67373;BME280;54257;54.496;18.412;2022-08-21T08:20:38;99497.11;;;21.19;80.78
67373;BME280;54257;54.496;18.412;2022-08-21T08:23:05;99500.02;;;21.20;80.90
67373;BME280;54257;54.496;18.412;2022-08-21T08:25:32;99498.39;;;21.22;80.88
67373;BME280;54257;54.496;18.412;2022-08-21T08:27:59;99500.73;;;21.20;80.78
67373;BME280;54257;54.496;18.412;2022-08-21T08:30:26;99501.14;;;21.18;80.72
67373;BME280;54257;54.496;18.412;2022-08-21T08:32:53;99502.58;;;21.16;80.95
67373;BME280;54257;54.496;18.412;2022-08-21T08:35:20;99505.14;;;21.13;80.78
67373;BME280;54257;54.496;18.412;2022-08-21T08:37:48;99508.48;;;21.12;80.93
67373;BME280;54257;54.496;18.412;2022-08-21T08:42:55;99501.39;;;21.11;81.19
67373;BME280;54257;54.496;18.412;2022-08-21T08:45:23;99501.63;;;21.14;81.33
67373;BME280;54257;54.496;18.412;2022-08-21T08:47:56;99501.16;;;21.17;81.45
67373;BME280;54257;54.496;18.412;2022-08-21T08:53:22;99500.65;;;21.22;81.29
67373;BME280;54257;54.496;18.412;2022-08-21T08:55:52;99501.11;;;21.24;81.62
67373;BME280;54257;54.496;18.412;2022-08-21T08:58:26;99502.23;;;21.28;81.52
67373;BME280;54257;54.496;18.412;2022-08-21T09:00:54;99499.44;;;21.33;81.67
67373;BME280;54257;54.496;18.412;2022-08-21T09:03:26;99497.64;;;21.35;81.54
67373;BME280;54257;54.496;18.412;2022-08-21T09:11:37;99492.54;;;21.32;81.32
67373;BME280;54257;54.496;18.412;2022-08-21T09:14:24;99494.73;;;21.29;81.35
67373;BME280;54257;54.496;18.412;2022-08-21T09:22:08;99498.44;;;21.37;81.55
67373;BME280;54257;54.496;18.412;2022-08-21T09:24:51;99500.58;;;21.40;81.73
67373;BME280;54257;54.496;18.412;2022-08-21T09:27:20;99501.68;;;21.43;81.39
67373;BME280;54257;54.496;18.412;2022-08-21T09:29:52;99500.29;;;21.48;81.43
67373;BME280;54257;54.496;18.412;2022-08-21T09:32:25;99501.73;;;21.46;80.88
67373;BME280;54257;54.496;18.412;2022-08-21T09:37:29;99501.55;;;21.52;81.03
67373;BME280;54257;54.496;18.412;2022-08-21T09:39:57;99500.04;;;21.50;80.72
67373;BME280;54257;54.496;18.412;2022-08-21T09:42:27;99500.25;;;21.48;80.54
67373;BME280;54257;54.496;18.412;2022-08-21T09:45:15;99500.39;;;21.50;80.68
67373;BME280;54257;54.496;18.412;2022-08-21T09:47:43;99501.20;;;21.52;80.58
67373;BME280;54257;54.496;18.412;2022-08-21T09:52:45;99504.29;;;21.53;80.38
67373;BME280;54257;54.496;18.412;2022-08-21T09:55:23;99502.23;;;21.52;80.30
67373;BME280;54257;54.496;18.412;2022-08-21T09:58:12;99512.23;;;21.49;80.22
67373;BME280;54257;54.496;18.412;2022-08-21T10:00:39;99515.70;;;21.45;80.12
67373;BME280;54257;54.496;18.412;2022-08-21T10:03:17;99527.33;;;21.40;79.91
67373;BME280;54257;54.496;18.412;2022-08-21T10:06:01;99529.59;;;21.36;79.85
67373;BME280;54257;54.496;18.412;2022-08-21T10:08:33;99523.84;;;21.36;80.08
67373;BME280;54257;54.496;18.412;2022-08-21T10:11:06;99521.73;;;21.36;80.17
67373;BME280;54257;54.496;18.412;2022-08-21T10:25:06;99528.31;;;21.15;79.90
67373;BME280;54257;54.496;18.412;2022-08-21T10:31:00;99521.16;;;21.07;79.86
67373;BME280;54257;54.496;18.412;2022-08-21T10:33:20;99514.83;;;20.98;79.56
67373;BME280;54257;54.496;18.412;2022-08-21T10:36:14;99525.01;;;20.95;79.69
67373;BME280;54257;54.496;18.412;2022-08-21T10:42:09;99530.20;;;20.90;80.22
67373;BME280;54257;54.496;18.412;2022-08-21T10:44:59;99529.80;;;20.92;80.12
67373;BME280;54257;54.496;18.412;2022-08-21T10:47:47;99529.27;;;20.87;79.78
67373;BME280;54257;54.496;18.412;2022-08-21T10:50:44;99526.58;;;20.84;80.14
67373;BME280;54257;54.496;18.412;2022-08-21T10:56:02;99528.54;;;20.78;79.92
67373;BME280;54257;54.496;18.412;2022-08-21T10:58:37;99532.20;;;20.78;80.47
67373;BME280;54257;54.496;18.412;2022-08-21T11:01:12;99533.38;;;20.79;80.46
67373;BME280;54257;54.496;18.412;2022-08-21T11:03:46;99538.41;;;20.79;80.62
67373;BME280;54257;54.496;18.412;2022-08-21T11:06:29;99539.10;;;20.79;80.45
67373;BME280;54257;54.496;18.412;2022-08-21T11:09:14;99546.16;;;20.80;80.72
67373;BME280;54257;54.496;18.412;2022-08-21T11:11:59;99546.56;;;20.84;80.90
67373;BME280;54257;54.496;18.412;2022-08-21T11:14:49;99545.37;;;20.83;81.00
67373;BME280;54257;54.496;18.412;2022-08-21T11:17:28;99548.05;;;20.87;81.00
67373;BME280;54257;54.496;18.412;2022-08-21T11:20:04;99549.83;;;20.90;81.07
67373;BME280;54257;54.496;18.412;2022-08-21T11:22:54;99544.34;;;20.88;80.70
67373;BME280;54257;54.496;18.412;2022-08-21T11:25:36;99543.72;;;20.86;80.78
67373;BME280;54257;54.496;18.412;2022-08-21T11:28:20;99550.84;;;20.91;80.90
67373;BME280;54257;54.496;18.412;2022-08-21T11:50:18;99579.48;;;20.92;79.41
67373;BME280;54257;54.496;18.412;2022-08-21T11:53:40;99573.04;;;20.92;79.59
67373;BME280;54257;54.496;18.412;2022-08-21T11:55:48;99568.48;;;20.98;80.06
67373;BME280;54257;54.496;18.412;2022-08-21T11:58:21;99575.69;;;21.07;80.12
67373;BME280;54257;54.496;18.412;2022-08-21T12:01:01;99579.09;;;21.14;80.14
67373;BME280;54257;54.496;18.412;2022-08-21T12:03:42;99578.81;;;21.18;79.82
67373;BME280;54257;54.496;18.412;2022-08-21T12:06:31;99579.17;;;21.16;79.44
67373;BME280;54257;54.496;18.412;2022-08-21T12:09:05;99582.72;;;21.15;79.38
67373;BME280;54257;54.496;18.412;2022-08-21T12:11:46;99582.30;;;21.12;79.22
67373;BME280;54257;54.496;18.412;2022-08-21T12:14:18;99579.13;;;21.13;79.25
67373;BME280;54257;54.496;18.412;2022-08-21T12:16:48;99573.67;;;21.15;79.03
67373;BME280;54257;54.496;18.412;2022-08-21T12:26:57;99578.62;;;21.07;77.04
67373;BME280;54257;54.496;18.412;2022-08-21T12:29:31;99579.86;;;21.07;77.23
67373;BME280;54257;54.496;18.412;2022-08-21T12:34:48;99571.86;;;21.12;77.55
67373;BME280;54257;54.496;18.412;2022-08-21T12:37:39;99573.98;;;21.16;77.36
67373;BME280;54257;54.496;18.412;2022-08-21T12:40:24;99581.62;;;21.16;77.41
67373;BME280;54257;54.496;18.412;2022-08-21T12:42:55;99587.34;;;21.17;77.43
67373;BME280;54257;54.496;18.412;2022-08-21T12:45:43;99591.06;;;21.10;77.11
67373;BME280;54257;54.496;18.412;2022-08-21T12:48:13;99595.27;;;21.03;77.10
67373;BME280;54257;54.496;18.412;2022-08-21T12:50:48;99603.20;;;20.98;77.25
67373;BME280;54257;54.496;18.412;2022-08-21T12:55:47;99599.80;;;20.91;77.18
67373;BME280;54257;54.496;18.412;2022-08-21T12:58:23;99596.02;;;20.85;76.97
67373;BME280;54257;54.496;18.412;2022-08-21T13:00:56;99592.05;;;20.78;76.97
67373;BME280;54257;54.496;18.412;2022-08-21T13:03:24;99588.61;;;20.72;77.24
67373;BME280;54257;54.496;18.412;2022-08-21T13:05:51;99591.20;;;20.66;77.37
67373;BME280;54257;54.496;18.412;2022-08-21T13:08:22;99590.35;;;20.60;77.50
67373;BME280;54257;54.496;18.412;2022-08-21T13:11:02;99600.80;;;20.54;77.69
67373;BME280;54257;54.496;18.412;2022-08-21T13:13:31;99610.94;;;20.45;77.72
67373;BME280;54257;54.496;18.412;2022-08-21T13:16:06;99611.76;;;20.40;77.68
67373;BME280;54257;54.496;18.412;2022-08-21T13:18:39;99611.50;;;20.36;78.08
67373;BME280;54257;54.496;18.412;2022-08-21T13:21:17;99606.08;;;20.27;77.79
67373;BME280;54257;54.496;18.412;2022-08-21T13:23:45;99616.54;;;20.18;78.10
67373;BME280;54257;54.496;18.412;2022-08-21T13:26:14;99620.52;;;20.12;78.54
67373;BME280;54257;54.496;18.412;2022-08-21T13:28:41;99624.52;;;20.06;78.76
67373;BME280;54257;54.496;18.412;2022-08-21T13:31:10;99624.65;;;20.01;78.70
67373;BME280;54257;54.496;18.412;2022-08-21T13:33:38;99624.41;;;19.97;79.02
67373;BME280;54257;54.496;18.412;2022-08-21T13:36:26;99632.79;;;19.95;79.05
67373;BME280;54257;54.496;18.412;2022-08-21T13:38:56;99633.49;;;19.95;78.73
67373;BME280;54257;54.496;18.412;2022-08-21T13:41:29;99637.61;;;19.96;78.66
67373;BME280;54257;54.496;18.412;2022-08-21T13:43:59;99637.04;;;19.98;78.57
67373;BME280;54257;54.496;18.412;2022-08-21T13:46:31;99629.48;;;19.95;78.08
67373;BME280;54257;54.496;18.412;2022-08-21T13:49:04;99632.48;;;19.93;78.25
67373;BME280;54257;54.496;18.412;2022-08-21T13:51:33;99635.26;;;19.93;78.23
67373;BME280;54257;54.496;18.412;2022-08-21T13:54:02;99641.42;;;19.97;78.53
67373;BME280;54257;54.496;18.412;2022-08-21T13:56:45;99647.52;;;19.96;78.15
67373;BME280;54257;54.496;18.412;2022-08-21T13:59:27;99648.58;;;19.95;78.40
67373;BME280;54257;54.496;18.412;2022-08-21T14:01:59;99645.28;;;19.94;78.45
67373;BME280;54257;54.496;18.412;2022-08-21T14:04:33;99643.77;;;19.93;78.52
67373;BME280;54257;54.496;18.412;2022-08-21T14:07:02;99646.70;;;19.87;78.33
67373;BME280;54257;54.496;18.412;2022-08-21T14:09:43;99649.60;;;19.82;78.30
67373;BME280;54257;54.496;18.412;2022-08-21T14:12:17;99651.42;;;19.72;77.51
67373;BME280;54257;54.496;18.412;2022-08-21T14:14:46;99658.77;;;19.63;76.88
67373;BME280;54257;54.496;18.412;2022-08-21T14:17:27;99657.40;;;19.54;76.76
67373;BME280;54257;54.496;18.412;2022-08-21T14:19:54;99655.06;;;19.44;76.10
67373;BME280;54257;54.496;18.412;2022-08-21T14:25:29;99655.06;;;19.36;77.19